Time;durP1;ratioP1;P1;durP2;ratioP2;P2;SDS_P1;SDS_P2;PMS_P1;PMS_P2;Temp;Humidity;BMP_temperature;BMP_pressure;BME280_temperature;BME280_humidity;BME280_pressure;Samples;Min_cycle;Max_cycle;Signal;HPM_P1;HPM_P2
2022/09/10 00:01:30;;;;;;;17.45;15.48;;;;;;;;;;6296862;22;20081;-75
2022/09/10 00:03:56;;;;;;;23.27;16.52;;;;;;;;;;6269718;22;20080;-75
2022/09/10 00:06:26;;;;;;;20.08;15.88;;;;;;;;;;6269150;22;20029;-74
2022/09/10 00:08:56;;;;;;;30.42;16.63;;;;;;;;;;6268992;22;20019;-74
2022/09/10 00:11:23;;;;;;;23.67;16.42;;;;;;;;;;6268685;22;20110;-74
2022/09/10 00:13:50;;;;;;;21.27;16.48;;;;;;;;;;6270090;22;20027;-73
2022/09/10 00:16:19;;;;;;;21.50;15.05;;;;;;;;;;6296365;22;20016;-73
2022/09/10 00:18:47;;;;;;;26.00;15.93;;;;;;;;;;6296614;22;20023;-75
2022/09/10 00:21:14;;;;;;;24.75;15.80;;;;;;;;;;6296428;22;20413;-75
2022/09/10 00:23:44;;;;;;;26.48;16.80;;;;;;;;;;6295673;22;20061;-74
2022/09/10 00:26:13;;;;;;;22.27;16.50;;;;;;;;;;6268619;22;20027;-76
2022/09/10 00:28:40;;;;;;;20.20;16.40;;;;;;;;;;6295854;22;20385;-73
2022/09/10 00:31:06;;;;;;;20.05;16.08;;;;;;;;;;6269171;22;20466;-74
2022/09/10 00:33:32;;;;;;;23.35;18.20;;;;;;;;;;6296950;22;20567;-73
2022/09/10 00:35:58;;;;;;;24.17;17.45;;;;;;;;;;6297509;22;20479;-74
2022/09/10 00:38:26;;;;;;;23.35;17.58;;;;;;;;;;6295617;22;20020;-73
2022/09/10 00:40:52;;;;;;;24.02;18.35;;;;;;;;;;6243480;22;20027;-75
2022/09/10 00:43:21;;;;;;;24.33;18.58;;;;;;;;;;6268609;22;20027;-73
2022/09/10 00:45:49;;;;;;;22.80;17.38;;;;;;;;;;6268262;22;20019;-73
2022/09/10 00:48:27;;;;;;;29.27;17.77;;;;;;;;;;6243798;22;20027;-73
2022/09/10 00:50:53;;;;;;;24.52;17.90;;;;;;;;;;6295635;22;20045;-73
2022/09/10 00:53:22;;;;;;;20.83;17.08;;;;;;;;;;6243137;22;20022;-73
2022/09/10 00:55:50;;;;;;;30.67;17.88;;;;;;;;;;6296397;22;20031;-73
2022/09/10 00:58:17;;;;;;;22.90;18.10;;;;;;;;;;6295845;22;20019;-74
2022/09/10 01:00:43;;;;;;;21.65;18.33;;;;;;;;;;6296752;22;20058;-75
2022/09/10 01:03:11;;;;;;;22.95;19.20;;;;;;;;;;6295975;22;20106;-74
2022/09/10 01:05:40;;;;;;;31.13;19.52;;;;;;;;;;6269842;22;20054;-74
2022/09/10 01:08:06;;;;;;;27.77;20.05;;;;;;;;;;6268879;22;20034;-74
2022/09/10 01:10:39;;;;;;;31.83;20.23;;;;;;;;;;6296521;22;20050;-73
2022/09/10 01:13:14;;;;;;;24.90;19.57;;;;;;;;;;6295401;22;20080;-73
2022/09/10 01:15:50;;;;;;;29.35;20.15;;;;;;;;;;6268923;22;20258;-73
2022/09/10 01:18:26;;;;;;;28.20;19.98;;;;;;;;;;6268228;22;20109;-73
2022/09/10 01:21:17;;;;;;;28.42;20.67;;;;;;;;;;6245168;22;20115;-74
2022/09/10 01:23:49;;;;;;;23.15;20.67;;;;;;;;;;6238038;22;20032;-73
2022/09/10 01:26:18;;;;;;;29.35;20.67;;;;;;;;;;6263273;22;20023;-75
2022/09/10 01:28:50;;;;;;;26.40;21.15;;;;;;;;;;6238526;22;20030;-72
2022/09/10 01:31:22;;;;;;;27.40;21.02;;;;;;;;;;6265750;22;20026;-73
2022/09/10 01:34:00;;;;;;;25.15;20.65;;;;;;;;;;6240620;22;20093;-74
2022/09/10 01:36:29;;;;;;;32.00;22.88;;;;;;;;;;6242115;22;20031;-74
2022/09/10 01:38:56;;;;;;;28.88;22.15;;;;;;;;;;6267313;22;20020;-73
2022/09/10 01:41:27;;;;;;;28.60;22.23;;;;;;;;;;6266994;22;20055;-73
2022/09/10 01:43:53;;;;;;;26.70;21.77;;;;;;;;;;6267586;22;20445;-74
2022/09/10 01:46:20;;;;;;;27.70;21.33;;;;;;;;;;6267755;22;20024;-73
2022/09/10 01:49:05;;;;;;;26.48;20.75;;;;;;;;;;6270225;22;20057;-74
2022/09/10 01:51:50;;;;;;;30.25;21.77;;;;;;;;;;6242736;22;20023;-73
2022/09/10 01:54:35;;;;;;;30.70;22.75;;;;;;;;;;6243074;22;20325;-73
2022/09/10 01:57:20;;;;;;;28.58;22.20;;;;;;;;;;6268244;22;20115;-74
2022/09/10 01:59:54;;;;;;;30.13;21.15;;;;;;;;;;6267408;22;20023;-73
2022/09/10 02:02:23;;;;;;;31.40;23.02;;;;;;;;;;6270055;22;20106;-74
2022/09/10 02:04:50;;;;;;;33.33;24.25;;;;;;;;;;6277558;22;20329;-73
2022/09/10 02:07:18;;;;;;;28.10;23.45;;;;;;;;;;6278259;22;20051;-74
2022/09/10 02:09:44;;;;;;;30.65;23.35;;;;;;;;;;6278105;22;20023;-73
2022/09/10 02:12:17;;;;;;;32.63;24.20;;;;;;;;;;6268163;22;20020;-74
2022/09/10 02:14:45;;;;;;;32.00;22.92;;;;;;;;;;6268647;22;20027;-74
2022/09/10 02:17:11;;;;;;;33.83;24.65;;;;;;;;;;6267522;22;20034;-73
2022/09/10 02:19:37;;;;;;;31.02;24.17;;;;;;;;;;6265903;22;20051;-73
2022/09/10 02:22:04;;;;;;;31.85;24.92;;;;;;;;;;6276784;22;20478;-74
2022/09/10 02:24:30;;;;;;;34.13;24.65;;;;;;;;;;6297704;22;20020;-75
2022/09/10 02:26:56;;;;;;;39.85;25.33;;;;;;;;;;6297850;22;20112;-74
2022/09/10 02:29:22;;;;;;;30.40;23.85;;;;;;;;;;6270515;22;20027;-73
2022/09/10 02:31:48;;;;;;;32.10;24.55;;;;;;;;;;6270088;22;20058;-73
2022/09/10 02:34:15;;;;;;;31.15;25.30;;;;;;;;;;6297565;22;20066;-74
2022/09/10 02:36:41;;;;;;;38.67;26.08;;;;;;;;;;6297896;22;20042;-75
2022/09/10 02:39:07;;;;;;;41.72;25.73;;;;;;;;;;6297098;22;20051;-73
2022/09/10 02:41:34;;;;;;;32.17;24.70;;;;;;;;;;6297643;22;20030;-74
2022/09/10 02:44:00;;;;;;;32.42;25.67;;;;;;;;;;6269302;22;20023;-74
2022/09/10 02:46:27;;;;;;;34.58;25.90;;;;;;;;;;6297788;22;20016;-75
2022/09/10 02:48:54;;;;;;;38.67;26.23;;;;;;;;;;6297322;22;20023;-74
2022/09/10 02:51:20;;;;;;;39.15;26.90;;;;;;;;;;6270722;22;20023;-74
2022/09/10 02:53:46;;;;;;;38.25;27.25;;;;;;;;;;6297965;22;20020;-73
2022/09/10 02:56:12;;;;;;;37.50;27.98;;;;;;;;;;6297349;22;20038;-74
2022/09/10 02:58:39;;;;;;;39.60;28.15;;;;;;;;;;6297866;22;20081;-74
2022/09/10 03:01:07;;;;;;;34.10;26.95;;;;;;;;;;6297056;22;20088;-74
2022/09/10 03:03:33;;;;;;;37.10;28.02;;;;;;;;;;6297751;22;20034;-73
2022/09/10 03:05:59;;;;;;;41.45;29.10;;;;;;;;;;6297480;22;20027;-75
2022/09/10 03:08:26;;;;;;;42.60;31.15;;;;;;;;;;6296978;22;20023;-75
2022/09/10 03:10:52;;;;;;;43.45;29.88;;;;;;;;;;6269735;22;20360;-73
2022/09/10 03:13:18;;;;;;;44.45;30.65;;;;;;;;;;6297772;22;20015;-73
2022/09/10 03:15:44;;;;;;;48.40;30.05;;;;;;;;;;6297499;22;20019;-74
2022/09/10 03:18:11;;;;;;;43.45;31.45;;;;;;;;;;6297775;22;20023;-74
2022/09/10 03:20:40;;;;;;;48.30;33.08;;;;;;;;;;6297933;22;20100;-74
2022/09/10 03:23:06;;;;;;;47.95;33.72;;;;;;;;;;6297200;22;20026;-74
2022/09/10 03:25:32;;;;;;;47.10;32.08;;;;;;;;;;6297348;22;20023;-72
2022/09/10 03:27:58;;;;;;;46.45;33.17;;;;;;;;;;6297721;22;20110;-74
2022/09/10 03:30:24;;;;;;;49.83;33.58;;;;;;;;;;6270837;22;20027;-74
2022/09/10 03:32:52;;;;;;;48.72;33.17;;;;;;;;;;6270392;22;20023;-74
2022/09/10 03:35:18;;;;;;;48.85;34.47;;;;;;;;;;6270110;22;20019;-72
2022/09/10 03:37:44;;;;;;;49.15;34.20;;;;;;;;;;6298519;22;20065;-72
2022/09/10 03:40:10;;;;;;;50.70;35.00;;;;;;;;;;6269319;22;20034;-73
2022/09/10 03:42:37;;;;;;;48.33;34.53;;;;;;;;;;6297609;22;20451;-74
2022/09/10 03:45:03;;;;;;;47.25;34.10;;;;;;;;;;6296148;22;20030;-74
2022/09/10 03:47:30;;;;;;;49.28;34.17;;;;;;;;;;6297243;22;21722;-74
2022/09/10 03:49:57;;;;;;;51.38;36.33;;;;;;;;;;6297037;22;20019;-74
2022/09/10 03:52:25;;;;;;;49.42;35.17;;;;;;;;;;6295058;22;20377;-74
2022/09/10 03:54:51;;;;;;;60.80;36.65;;;;;;;;;;6296679;22;20023;-75
2022/09/10 03:57:17;;;;;;;50.75;35.67;;;;;;;;;;6296334;22;20905;-74
2022/09/10 03:59:44;;;;;;;46.85;34.13;;;;;;;;;;6269446;22;20075;-74
2022/09/10 04:02:11;;;;;;;46.72;35.35;;;;;;;;;;6243700;22;20027;-75
2022/09/10 04:04:37;;;;;;;50.33;34.53;;;;;;;;;;6296946;22;20144;-73
2022/09/10 04:07:04;;;;;;;50.33;34.92;;;;;;;;;;6269202;22;20041;-74
2022/09/10 04:09:31;;;;;;;59.75;36.75;;;;;;;;;;6244408;22;20023;-75
2022/09/10 04:11:58;;;;;;;52.05;35.90;;;;;;;;;;6269689;22;20030;-75
2022/09/10 04:14:25;;;;;;;51.58;35.42;;;;;;;;;;6268349;22;20570;-75
2022/09/10 04:16:51;;;;;;;51.10;36.28;;;;;;;;;;6297772;22;20023;-75
2022/09/10 04:19:17;;;;;;;56.15;38.10;;;;;;;;;;6296906;22;20049;-74
2022/09/10 04:21:43;;;;;;;53.10;37.75;;;;;;;;;;6296574;22;20027;-76
2022/09/10 04:24:12;;;;;;;60.00;38.75;;;;;;;;;;6297281;22;20202;-74
2022/09/10 04:26:38;;;;;;;59.75;38.55;;;;;;;;;;6297042;22;20023;-74
2022/09/10 04:29:04;;;;;;;53.15;38.28;;;;;;;;;;6296010;22;20053;-76
2022/09/10 04:31:30;;;;;;;59.40;40.05;;;;;;;;;;6296867;22;20066;-77
2022/09/10 04:33:58;;;;;;;57.97;38.58;;;;;;;;;;6298103;22;20119;-79
2022/09/10 04:36:25;;;;;;;56.60;40.05;;;;;;;;;;6296376;22;20077;-74
2022/09/10 04:38:51;;;;;;;65.45;40.92;;;;;;;;;;6268921;22;20015;-77
2022/09/10 04:41:18;;;;;;;66.97;41.00;;;;;;;;;;6296808;22;20065;-76
2022/09/10 04:43:44;;;;;;;60.08;41.75;;;;;;;;;;6297467;22;20102;-75
2022/09/10 04:46:11;;;;;;;63.95;41.47;;;;;;;;;;6269366;22;20073;-74
2022/09/10 04:48:37;;;;;;;66.82;42.58;;;;;;;;;;6268821;22;20062;-76
2022/09/10 04:51:03;;;;;;;65.72;42.25;;;;;;;;;;6270103;22;20034;-77
2022/09/10 04:53:30;;;;;;;65.82;40.65;;;;;;;;;;6269654;22;20019;-76
2022/09/10 04:55:56;;;;;;;75.38;43.55;;;;;;;;;;6298133;22;20077;-73
2022/09/10 04:58:22;;;;;;;70.80;41.88;;;;;;;;;;6300573;22;20019;-76
2022/09/10 05:00:49;;;;;;;66.45;42.47;;;;;;;;;;6302573;22;20023;-75
2022/09/10 05:03:15;;;;;;;68.80;41.78;;;;;;;;;;6305060;22;20015;-75
2022/09/10 05:05:45;;;;;;;72.00;41.17;;;;;;;;;;6298979;22;20060;-74
2022/09/10 05:08:12;;;;;;;71.80;42.47;;;;;;;;;;6296853;22;20016;-74
2022/09/10 05:10:38;;;;;;;65.07;40.97;;;;;;;;;;6242782;22;20101;-74
2022/09/10 05:13:04;;;;;;;71.53;40.90;;;;;;;;;;6270547;22;20034;-74
2022/09/10 05:15:30;;;;;;;63.50;39.20;;;;;;;;;;6298542;22;20055;-74
2022/09/10 05:17:56;;;;;;;68.55;40.15;;;;;;;;;;6296903;22;20031;-73
2022/09/10 05:20:22;;;;;;;65.85;40.17;;;;;;;;;;6273834;22;20030;-72
2022/09/10 05:22:49;;;;;;;68.20;40.90;;;;;;;;;;6300656;22;20027;-73
2022/09/10 05:25:15;;;;;;;59.35;38.30;;;;;;;;;;6301816;22;20434;-74
2022/09/10 05:27:41;;;;;;;62.25;39.65;;;;;;;;;;6300556;22;20186;-74
2022/09/10 05:30:07;;;;;;;63.47;40.10;;;;;;;;;;6271025;22;20016;-75
2022/09/10 05:32:33;;;;;;;61.92;39.33;;;;;;;;;;6270729;22;20027;-75
2022/09/10 05:35:01;;;;;;;68.85;40.95;;;;;;;;;;6271745;22;20053;-74
2022/09/10 05:37:27;;;;;;;72.95;42.28;;;;;;;;;;6296859;22;20019;-75
2022/09/10 05:39:53;;;;;;;65.68;40.03;;;;;;;;;;6244617;22;20103;-73
2022/09/10 05:42:21;;;;;;;67.88;38.67;;;;;;;;;;6245251;22;20020;-76
2022/09/10 05:44:47;;;;;;;60.55;39.15;;;;;;;;;;6298431;22;20026;-75
2022/09/10 05:47:13;;;;;;;65.63;39.75;;;;;;;;;;6298719;22;20555;-75
2022/09/10 05:49:39;;;;;;;62.67;39.55;;;;;;;;;;6296772;22;20057;-75
2022/09/10 05:52:05;;;;;;;60.90;38.92;;;;;;;;;;6298537;22;20019;-74
2022/09/10 05:54:31;;;;;;;67.68;40.55;;;;;;;;;;6243446;22;20023;-75
2022/09/10 05:56:57;;;;;;;68.45;40.67;;;;;;;;;;6297920;22;20023;-75
2022/09/10 05:59:24;;;;;;;68.22;40.38;;;;;;;;;;6297638;22;20027;-77
2022/09/10 06:01:50;;;;;;;64.72;39.78;;;;;;;;;;6269787;22;20023;-75
2022/09/10 06:04:20;;;;;;;70.45;41.28;;;;;;;;;;6296924;22;20051;-75
2022/09/10 06:06:46;;;;;;;60.42;39.22;;;;;;;;;;6297632;22;20359;-76
2022/09/10 06:09:13;;;;;;;68.35;40.28;;;;;;;;;;6269916;22;20027;-75
2022/09/10 06:11:39;;;;;;;65.35;40.13;;;;;;;;;;6270149;22;20019;-75
2022/09/10 06:14:05;;;;;;;66.57;41.10;;;;;;;;;;6297699;22;20019;-75
2022/09/10 06:16:41;;;;;;;70.50;40.75;;;;;;;;;;6296547;22;20068;-75
2022/09/10 06:19:13;;;;;;;60.75;39.53;;;;;;;;;;6269426;22;20054;-74
2022/09/10 06:21:39;;;;;;;64.97;40.03;;;;;;;;;;6296467;22;20303;-74
2022/09/10 06:24:06;;;;;;;64.97;40.83;;;;;;;;;;6270316;22;20026;-74
2022/09/10 06:26:32;;;;;;;76.93;40.80;;;;;;;;;;6298010;22;20090;-74
2022/09/10 06:28:58;;;;;;;64.53;40.75;;;;;;;;;;6297752;22;20019;-74
2022/09/10 06:31:25;;;;;;;66.90;40.10;;;;;;;;;;6298579;22;20023;-75
2022/09/10 06:33:51;;;;;;;71.10;39.80;;;;;;;;;;6297250;22;20085;-75
2022/09/10 06:36:17;;;;;;;64.47;41.70;;;;;;;;;;6298229;22;20058;-73
2022/09/10 06:38:44;;;;;;;59.58;38.42;;;;;;;;;;6270460;22;20027;-73
2022/09/10 06:41:15;;;;;;;60.80;38.97;;;;;;;;;;6297418;22;20038;-74
2022/09/10 06:43:42;;;;;;;61.75;38.67;;;;;;;;;;6269691;22;20129;-74
2022/09/10 06:46:13;;;;;;;62.60;37.85;;;;;;;;;;6297864;22;20106;-73
2022/09/10 06:48:40;;;;;;;68.10;38.65;;;;;;;;;;6298099;22;20407;-74
2022/09/10 06:51:07;;;;;;;56.50;36.78;;;;;;;;;;6299094;22;20019;-74
2022/09/10 06:53:33;;;;;;;62.92;37.50;;;;;;;;;;6273117;22;20074;-74
2022/09/10 06:56:00;;;;;;;60.60;36.35;;;;;;;;;;6299887;22;20076;-73
2022/09/10 06:58:27;;;;;;;57.08;36.13;;;;;;;;;;6300333;22;20026;-74
2022/09/10 07:00:54;;;;;;;47.67;34.22;;;;;;;;;;6272080;22;20452;-73
2022/09/10 07:03:21;;;;;;;55.00;34.00;;;;;;;;;;6299900;22;20432;-73
2022/09/10 07:05:48;;;;;;;60.97;35.95;;;;;;;;;;6273021;22;20023;-73
2022/09/10 07:08:19;;;;;;;49.15;34.97;;;;;;;;;;6272169;22;20395;-73
2022/09/10 07:10:46;;;;;;;51.45;34.28;;;;;;;;;;6298807;22;20030;-74
2022/09/10 07:13:12;;;;;;;52.67;36.08;;;;;;;;;;6299433;22;20015;-73
2022/09/10 07:15:45;;;;;;;50.53;33.30;;;;;;;;;;6272428;22;20027;-73
2022/09/10 07:18:15;;;;;;;57.30;35.85;;;;;;;;;;6271765;22;20031;-74
2022/09/10 07:20:44;;;;;;;52.65;35.28;;;;;;;;;;6298899;22;20026;-74
2022/09/10 07:23:12;;;;;;;54.35;34.13;;;;;;;;;;6271290;22;20027;-73
2022/09/10 07:25:38;;;;;;;61.35;35.58;;;;;;;;;;6271810;22;20080;-74
2022/09/10 07:28:05;;;;;;;53.35;35.58;;;;;;;;;;6300009;22;20041;-73
2022/09/10 07:30:32;;;;;;;61.15;34.45;;;;;;;;;;6271531;22;20073;-75
2022/09/10 07:32:58;;;;;;;59.38;35.22;;;;;;;;;;6246953;22;20062;-74
2022/09/10 07:35:24;;;;;;;46.47;33.65;;;;;;;;;;6299528;22;20093;-74
2022/09/10 07:37:50;;;;;;;54.05;35.22;;;;;;;;;;6299181;22;20360;-74
2022/09/10 07:40:16;;;;;;;47.00;31.70;;;;;;;;;;6299797;22;20474;-74
2022/09/10 07:42:43;;;;;;;52.97;35.10;;;;;;;;;;6246454;22;20396;-74
2022/09/10 07:45:14;;;;;;;48.25;33.10;;;;;;;;;;6299198;22;20046;-74
2022/09/10 07:47:43;;;;;;;44.60;32.85;;;;;;;;;;6300459;22;20403;-74
2022/09/10 07:50:09;;;;;;;51.55;31.45;;;;;;;;;;6303011;22;20077;-73
2022/09/10 07:52:35;;;;;;;47.90;32.50;;;;;;;;;;6280215;22;20080;-74
2022/09/10 07:55:01;;;;;;;40.50;30.38;;;;;;;;;;6305599;22;20023;-74
2022/09/10 07:57:33;;;;;;;43.15;29.95;;;;;;;;;;6303573;22;20022;-83
2022/09/10 08:03:33;;;;;;;40.95;30.25;;;;;;;;;;6304433;22;20023;-83
2022/09/10 08:06:00;;;;;;;36.53;28.25;;;;;;;;;;6252379;22;20016;-84
2022/09/10 08:11:42;;;;;;;40.83;27.80;;;;;;;;;;6304794;22;20027;-85
2022/09/10 08:17:40;;;;;;;39.03;26.92;;;;;;;;;;6301051;22;20092;31
2022/09/10 08:22:52;;;;;;;37.15;26.23;;;;;;;;;;6305864;22;20019;-83
2022/09/10 08:32:06;;;;;;;36.47;26.75;;;;;;;;;;6328148;22;20338;-82
2022/09/10 08:34:40;;;;;;;36.17;26.30;;;;;;;;;;6253177;22;20023;-85
2022/09/10 08:40:05;;;;;;;38.88;25.67;;;;;;;;;;6305979;22;20019;-85
2022/09/10 09:21:15;;;;;;;36.83;25.88;;;;;;;;;;6297226;22;20031;-81
2022/09/10 09:24:21;;;;;;;34.05;23.15;;;;;;;;;;6299271;22;20023;-82
2022/09/10 09:40:25;;;;;;;30.85;21.45;;;;;;;;;;6312134;22;20031;-88
2022/09/10 09:46:45;;;;;;;26.90;19.80;;;;;;;;;;6186279;23;20092;-86
2022/09/10 09:56:57;;;;;;;24.02;18.15;;;17.40;99.90;;;;;;6316501;22;20442;-92
2022/09/10 09:59:28;;;;;;;20.38;17.25;;;;;;;;;;6309095;22;20075;-90
2022/09/10 11:13:30;;;;;;;29.63;19.52;;;;;;;;;;6296523;22;20035;-86
2022/09/10 14:12:24;;;;;;;13.35;10.60;;;;;;;;;;6285266;22;19970;-88
2022/09/10 14:15:36;;;;;;;18.88;13.32;;;;;;;;;;6264563;22;20053;-90
2022/09/10 14:18:05;;;;;;;18.17;14.95;;;;;;;;;;6233539;22;20050;-88
2022/09/10 14:20:32;;;;;;;18.98;13.55;;;;;;;;;;6261845;22;20053;-90
2022/09/10 14:25:35;;;;;;;16.95;13.70;;;;;;;;;;6298727;22;20030;-89
2022/09/10 14:28:21;;;;;;;15.23;12.50;;;;;;;;;;6308810;22;20477;-90
2022/09/10 14:30:48;;;;;;;14.20;12.00;;;;;;;;;;6284374;22;20073;-87
2022/09/10 14:36:29;;;;;;;18.70;12.45;;;;;;;;;;6312408;22;20459;-90
2022/09/10 14:38:56;;;;;;;17.70;12.70;;;;;;;;;;6278054;22;20027;-86
2022/09/10 14:42:16;;;;;;;15.50;12.00;;;;;;;;;;6283579;22;20625;-89
2022/09/10 14:45:30;;;;;;;;;;;;;;;;;;;;;
2022/09/10 14:51:27;;;;;;;16.35;11.13;;;;;;;;;;6294410;22;20027;-89
2022/09/10 14:54:00;;;;;;;13.88;11.57;;;;;;;;;;6227102;22;20031;-89
2022/09/10 14:57:05;;;;;;;11.98;10.65;;;;;;;;;;6231251;22;20016;-89
2022/09/10 14:59:56;;;;;;;16.08;11.80;;;;;;;;;;6209802;22;20500;-90
2022/09/10 15:05:41;;;;;;;16.17;11.38;;;;;;;;;;6267287;22;20161;-89
2022/09/10 15:08:13;;;;;;;14.02;11.32;;;;;;;;;;6250868;22;20106;-90
2022/09/10 15:10:44;;;;;;;14.30;11.07;;;;;;;;;;6199214;22;20031;-88
2022/09/10 15:19:57;;;;;;;11.65;9.52;;;;;;;;;;6281803;22;20038;-90
2022/09/10 15:22:30;;;;;;;17.92;11.45;;;;;;;;;;6233503;22;20055;-89
2022/09/10 15:25:00;;;;;;;13.80;10.20;;;;;;;;;;6259721;22;20026;-88
2022/09/10 15:27:34;;;;;;;14.70;10.73;;;;;;;;;;6282867;22;20069;-87
2022/09/10 15:30:04;;;;;;;17.65;11.38;;;;;;;;;;6257521;22;20711;-88
2022/09/10 15:32:32;;;;;;;15.38;11.30;;;;;;;;;;6257125;22;20027;-88
2022/09/10 15:35:10;;;;;;;18.73;10.82;;;;;;;;;;6261216;22;20403;-88
2022/09/10 15:37:40;;;;;;;13.40;10.38;;;;;;;;;;6284140;22;20475;-88
2022/09/10 15:40:09;;;;;;;15.43;10.82;;;;;;;;;;6258153;22;20336;-88
2022/09/10 15:45:42;;;;;;;13.05;10.15;;;;;;;;;;6292640;22;20534;-89
2022/09/10 15:48:09;;;;;;;11.18;9.50;;;;;;;;;;6253975;22;20490;-89
2022/09/10 15:50:47;;;;;;;15.38;8.98;;;;;;;;;;6257567;22;20148;-90
2022/09/10 15:53:17;;;;;;;11.02;7.90;;;;;;;;;;6277531;22;20027;-88
2022/09/10 15:55:46;;;;;;;12.63;8.30;;;;;;;;;;6255496;22;20038;-87
2022/09/10 15:58:14;;;;;;;14.88;9.27;;;;;;;;;;6302444;22;20018;-86
2022/09/10 16:00:46;;;;;;;11.90;8.82;;;;;;;;;;6261340;22;20011;-90
2022/09/10 16:10:11;;;;;;;10.85;7.18;;;;;;;;;;6314288;22;20017;-92
2022/09/10 16:16:31;;;;;;;9.90;6.88;;;;;;;;;;6314066;22;20095;-92
2022/09/10 16:22:02;;;;;;;11.43;6.50;;;;;;;;;;6311736;22;20034;-93
2022/09/10 16:27:28;;;;;;;9.63;7.15;;;;;;;;;;6297391;22;20069;-91
2022/09/10 16:30:45;;;;;;;7.35;6.57;;;;;;;;;;6282670;22;20096;-90
2022/09/10 16:33:22;;;;;;;9.48;6.53;;;;;;;;;;6226339;22;20091;-87
2022/09/10 16:35:59;;;;;;;9.82;7.47;;;;;;;;;;6227940;22;20023;-89
2022/09/10 16:44:05;;;;;;;;;;;;;;;;;;;;;
2022/09/10 16:47:00;;;;;;;9.57;6.97;;;;;;;;;;6284428;22;20022;-91
2022/09/10 16:49:40;;;;;;;9.70;6.75;;;;;;;;;;6266027;22;20109;-90
2022/09/10 16:52:17;;;;;;;12.55;7.38;;;;;;;;;;6261739;22;20018;-91
2022/09/10 16:55:17;;;;;;;;;;;;;;;;;;;;;
2022/09/10 16:58:16;;;;;;;9.32;7.28;;;;;;;;;;6313623;22;20019;-93
2022/09/10 17:04:24;;;;;;;9.93;7.60;;;;;;;;;;6300367;22;20027;-89
2022/09/10 17:06:58;;;;;;;11.63;7.80;;;;;;;;;;6284912;22;20020;-93
2022/09/10 17:09:35;;;;;;;9.73;8.00;;;;;;;;;;6231344;22;20020;-90
2022/09/10 17:12:07;;;;;;;16.38;8.57;;;;;;;;;;6282372;22;20015;-89
2022/09/10 17:17:19;;;;;;;11.88;8.77;;;;;;;;;;6300631;22;20046;-86
2022/09/10 17:20:06;;;;;;;15.30;9.98;;;;;;;;;;6236303;22;20336;-90
2022/09/10 17:22:35;;;;;;;;;;;;;;;;;;6264078;22;20027;-91
2022/09/10 17:25:18;;;;;;;14.43;11.02;;;;;;;;;;6285663;22;19960;-90
2022/09/10 17:28:01;;;;;;;15.13;11.65;;;;;;;;;;6314718;22;20027;-90
2022/09/10 17:37:37;;;;;;;17.87;13.53;;;;;;;;;;6316636;22;20086;-91
2022/09/10 17:40:07;;;;;;;18.88;14.60;;;;;;;;;;6258759;22;20030;-90
2022/09/10 17:45:42;;;;;;;17.08;14.27;;;;;;;;;;6277528;22;20126;-93
2022/09/10 17:54:07;;;;;;;18.83;15.05;;;;;;;;;;6315783;22;20133;-86
2022/09/10 17:56:42;;;;;;;16.90;15.02;;;;;;;;;;6258684;22;20090;-89
2022/09/10 21:00:23;;;;;;;17.45;15.75;;;;;;;;;;6308030;22;20079;-88
2022/09/10 22:02:36;;;;;;;17.63;14.95;;;;;;;;;;6314761;22;20021;-90
2022/09/10 22:05:08;;;;;;;19.88;15.35;;;;;;;;;;6279542;22;20019;-88
2022/09/10 22:13:42;;;;;;;18.63;13.65;;;;;;;;;;6305926;22;20058;-89
2022/09/10 22:59:36;;;;;;;;;;;;;;;;;;;;;
2022/09/10 23:30:26;;;;;;;;;;;;;;;;;;;;;
2022/09/10 23:49:52;;;;;;;26.77;23.95;;;;;;;;;;6239079;23;20020;-87
